Time;durP1;ratioP1;P1;durP2;ratioP2;P2;SDS_P1;SDS_P2;PMS_P1;PMS_P2;Temp;Humidity;BMP_temperature;BMP_pressure;BME280_temperature;BME280_humidity;BME280_pressure;Samples;Min_cycle;Max_cycle;Signal;HPM_P1;HPM_P2
2022/09/23 00:01:08;;;;;;;7.90;6.30;;;11.10;1.00;;;;;;5010676;28;20208;-66
2022/09/23 00:03:37;;;;;;;6.33;5.73;;;11.10;1.00;;;;;;5011214;28;20426;-66
2022/09/23 00:06:15;;;;;;;6.47;5.80;;;11.10;1.00;;;;;;5011099;28;20411;-66
2022/09/23 00:08:42;;;;;;;11.10;5.97;;;11.10;1.00;;;;;;5011214;28;20434;-65
2022/09/23 00:11:12;;;;;;;7.80;6.47;;;11.10;1.00;;;;;;5010652;28;20438;-66
2022/09/23 00:13:39;;;;;;;6.70;6.00;;;11.00;1.00;;;;;;5010994;28;20411;-65
2022/09/23 00:16:08;;;;;;;12.77;6.70;;;11.00;1.00;;;;;;5011117;28;20419;-66
2022/09/23 00:18:34;;;;;;;17.93;6.67;;;10.90;1.00;;;;;;5014991;28;20545;-66
2022/09/23 00:21:08;;;;;;;7.17;6.47;;;10.90;1.00;;;;;;5014407;28;20884;-66
2022/09/23 00:23:34;;;;;;;7.80;6.03;;;10.90;1.00;;;;;;5014854;28;20633;-63
2022/09/23 00:26:01;;;;;;;6.33;5.73;;;10.90;1.00;;;;;;5014729;28;20399;-64
2022/09/23 00:28:28;;;;;;;7.57;6.87;;;10.90;1.00;;;;;;5014605;28;20164;-64
2022/09/23 00:30:53;;;;;;;9.07;6.87;;;10.90;1.00;;;;;;5014447;28;20982;-63
2022/09/23 00:33:19;;;;;;;7.83;6.67;;;10.90;1.00;;;;;;5014615;28;20411;-62
2022/09/23 00:35:46;;;;;;;7.07;6.37;;;10.80;1.00;;;;;;5014564;28;20174;-65
2022/09/23 00:38:13;;;;;;;7.47;5.80;;;10.80;1.00;;;;;;5014485;28;20177;-64
2022/09/23 00:40:43;;;;;;;6.70;6.07;;;10.80;1.00;;;;;;5013936;28;20454;-65
2022/09/23 00:43:12;;;;;;;11.20;7.20;;;10.80;1.00;;;;;;5014336;28;20411;-65
2022/09/23 00:45:39;;;;;;;9.17;6.27;;;10.80;1.00;;;;;;5014375;28;20404;-63
2022/09/23 00:48:10;;;;;;;7.90;6.13;;;10.70;1.00;;;;;;5014070;28;20423;-65
2022/09/23 00:50:40;;;;;;;6.73;6.03;;;10.70;1.00;;;;;;5013860;28;20438;-64
2022/09/23 00:53:10;;;;;;;9.93;6.97;;;10.70;1.00;;;;;;5014122;28;20880;-64
2022/09/23 00:55:41;;;;;;;7.57;6.77;;;10.70;1.00;;;;;;5014227;28;20461;-64
2022/09/23 00:58:11;;;;;;;6.60;6.00;;;10.70;1.00;;;;;;5014089;28;20402;-64
2022/09/23 01:00:37;;;;;;;12.17;6.67;;;10.60;1.00;;;;;;5013379;28;20993;-64
2022/09/23 01:03:05;;;;;;;9.33;6.40;;;10.60;1.00;;;;;;5014149;28;20439;-64
2022/09/23 01:05:33;;;;;;;14.40;7.30;;;10.60;1.00;;;;;;5013851;28;20403;-63
2022/09/23 01:08:01;;;;;;;10.77;6.00;;;10.60;1.00;;;;;;5014078;28;20435;-64
2022/09/23 01:10:54;;;;;;;10.67;6.23;;;10.50;1.00;;;;;;5013484;28;20477;-66
2022/09/23 01:13:41;;;;;;;9.40;6.43;;;10.50;1.00;;;;;;5012537;28;20426;-63
2022/09/23 01:16:22;;;;;;;6.97;5.83;;;10.50;1.00;;;;;;5013759;28;20400;-62
2022/09/23 01:18:50;;;;;;;12.63;6.83;;;10.50;1.00;;;;;;5013812;28;20739;-64
2022/09/23 01:21:27;;;;;;;6.60;5.97;;;10.50;1.00;;;;;;5013174;28;20489;-65
2022/09/23 01:24:07;;;;;;;7.00;6.40;;;10.50;1.00;;;;;;5013629;28;20491;-64
2022/09/23 01:27:06;;;;;;;7.53;5.67;;;10.40;1.00;;;;;;5013511;28;20406;-65
2022/09/23 01:29:49;;;;;;;5.87;5.37;;;10.40;1.00;;;;;;5012954;28;20399;-65
2022/09/23 01:32:21;;;;;;;6.00;5.40;;;10.30;1.00;;;;;;5013308;28;20402;-64
2022/09/23 01:34:53;;;;;;;7.63;6.63;;;10.40;1.00;;;;;;5013472;28;20833;-63
2022/09/23 01:37:28;;;;;;;10.80;6.93;;;10.40;1.00;;;;;;5013613;28;20399;-64
2022/09/23 01:40:20;;;;;;;9.23;6.37;;;10.40;1.00;;;;;;5013465;28;20534;-65
2022/09/23 01:42:53;;;;;;;9.10;6.60;;;10.40;1.00;;;;;;5013021;28;20406;-65
2022/09/23 01:45:29;;;;;;;7.50;6.63;;;10.30;1.00;;;;;;5013418;28;20410;-65
2022/09/23 01:48:01;;;;;;;11.83;7.00;;;10.40;1.00;;;;;;5013199;28;20493;-66
2022/09/23 01:53:40;;;;;;;7.20;6.50;;;10.30;1.00;;;;;;5013353;28;20765;-65
2022/09/23 01:56:18;;;;;;;10.80;6.43;;;10.30;1.00;;;;;;5015811;28;20424;-65
2022/09/23 01:58:47;;;;;;;8.60;6.60;;;10.10;1.00;;;;;;5012765;28;20975;-66
2022/09/23 02:01:23;;;;;;;9.43;6.80;;;10.10;1.00;;;;;;5012650;28;20451;-65
2022/09/23 02:04:11;;;;;;;9.13;6.67;;;10.10;1.00;;;;;;5012902;28;20899;-65
2022/09/23 02:07:06;;;;;;;7.40;6.30;;;10.20;1.00;;;;;;5013047;28;21098;-65
2022/09/23 02:09:39;;;;;;;12.53;7.90;;;10.20;1.00;;;;;;5014264;28;20420;-64
2022/09/23 02:12:11;;;;;;;12.03;7.17;;;10.20;1.00;;;;;;5012523;28;20395;-64
2022/09/23 02:15:07;;;;;;;7.67;6.70;;;10.20;1.00;;;;;;5012933;28;20416;-64
2022/09/23 02:17:40;;;;;;;13.60;7.03;;;10.20;1.00;;;;;;5012961;28;20411;-65
2022/09/23 02:20:06;;;;;;;12.90;8.37;;;10.20;1.00;;;;;;5012937;28;20967;-65
2022/09/23 02:22:39;;;;;;;6.63;5.93;;;10.20;1.00;;;;;;5012312;28;20453;-65
2022/09/23 02:25:07;;;;;;;7.00;6.33;;;10.10;1.00;;;;;;5012535;28;20763;-65
2022/09/23 02:27:47;;;;;;;6.40;5.80;;;10.00;1.00;;;;;;5012437;28;20900;-64
2022/09/23 02:30:20;;;;;;;6.00;5.33;;;9.90;1.00;;;;;;5012557;28;20461;-64
2022/09/23 02:32:57;;;;;;;8.17;7.30;;;9.90;1.00;;;;;;5012171;28;20411;-64
2022/09/23 02:35:33;;;;;;;6.53;5.93;;;9.90;1.00;;;;;;5012369;28;20888;-64
2022/09/23 02:38:33;;;;;;;7.63;6.50;;;9.90;1.00;;;;;;5012198;28;20415;-65
2022/09/23 02:41:03;;;;;;;6.70;6.10;;;9.90;1.00;;;;;;5010917;28;20466;-64
2022/09/23 02:43:54;;;;;;;7.00;6.30;;;10.00;1.00;;;;;;5012412;28;20419;-64
2022/09/23 02:46:21;;;;;;;6.53;5.80;;;10.00;1.00;;;;;;5013293;28;20465;-65
2022/09/23 02:48:52;;;;;;;8.23;6.43;;;10.00;1.00;;;;;;5012275;28;20842;-64
2022/09/23 02:51:18;;;;;;;9.80;7.10;;;9.90;1.00;;;;;;5011645;28;20435;-65
2022/09/23 02:53:45;;;;;;;6.80;6.10;;;9.80;1.00;;;;;;5011823;28;20407;-65
2022/09/23 02:56:19;;;;;;;11.23;6.40;;;9.80;1.00;;;;;;5011924;28;20407;-64
2022/09/23 02:58:48;;;;;;;8.60;6.40;;;9.80;1.00;;;;;;5011684;28;20406;-64
2022/09/23 03:01:38;;;;;;;10.43;6.77;;;9.80;1.00;;;;;;5011424;28;20470;-63
2022/09/23 03:04:37;;;;;;;9.60;6.80;;;9.70;1.00;;;;;;5011907;28;20415;-66
2022/09/23 03:07:11;;;;;;;9.27;6.10;;;9.70;1.00;;;;;;5011457;28;20888;-65
2022/09/23 03:09:43;;;;;;;7.80;6.70;;;9.60;1.00;;;;;;5011704;28;20419;-65
2022/09/23 03:12:12;;;;;;;6.53;5.83;;;9.70;1.00;;;;;;5011423;28;20453;-66
2022/09/23 03:14:56;;;;;;;6.73;6.07;;;9.70;1.00;;;;;;5011577;28;20506;-65
2022/09/23 03:17:32;;;;;;;11.13;7.23;;;9.60;1.00;;;;;;5014725;28;20395;-65
2022/09/23 03:20:08;;;;;;;8.97;7.10;;;9.60;1.00;;;;;;5014679;28;20486;-65
2022/09/23 03:22:39;;;;;;;7.30;6.07;;;9.60;1.00;;;;;;5014555;28;20417;-65
2022/09/23 03:25:10;;;;;;;9.60;6.40;;;9.70;1.00;;;;;;5015063;28;20915;-65
2022/09/23 03:27:37;;;;;;;8.47;6.20;;;9.70;1.00;;;;;;5011760;28;20411;-65
2022/09/23 03:30:04;;;;;;;6.93;6.23;;;9.60;1.00;;;;;;5011507;28;20427;-65
2022/09/23 03:32:31;;;;;;;10.87;6.37;;;9.60;1.00;;;;;;5011172;28;20411;-64
2022/09/23 03:34:59;;;;;;;7.73;6.47;;;9.60;1.00;;;;;;5011736;28;20411;-65
2022/09/23 03:37:49;;;;;;;7.73;7.00;;;9.60;1.00;;;;;;5011533;28;20421;-64
2022/09/23 03:40:18;;;;;;;7.33;6.60;;;9.50;1.00;;;;;;5013609;28;20474;-65
2022/09/23 03:42:45;;;;;;;14.73;7.00;;;9.50;1.00;;;;;;5011164;28;20822;-65
2022/09/23 03:45:17;;;;;;;9.13;6.07;;;9.50;1.00;;;;;;5011875;28;20411;-64
2022/09/23 03:47:43;;;;;;;7.10;5.90;;;9.50;1.00;;;;;;5012638;28;20411;-66
2022/09/23 03:50:12;;;;;;;8.17;6.10;;;9.50;1.00;;;;;;5011115;28;20474;-66
2022/09/23 03:52:38;;;;;;;9.80;7.03;;;9.50;1.00;;;;;;5011069;28;20469;-66
2022/09/23 03:55:06;;;;;;;6.90;6.27;;;9.40;1.00;;;;;;5011307;28;20430;-66
2022/09/23 03:57:31;;;;;;;7.20;5.77;;;9.30;1.00;;;;;;5011412;28;20446;-66
2022/09/23 03:59:57;;;;;;;13.30;6.97;;;9.30;1.00;;;;;;5010784;28;20510;-65
2022/09/23 04:02:23;;;;;;;21.40;7.93;;;9.30;1.00;;;;;;5010767;28;20207;-65
2022/09/23 04:04:48;;;;;;;11.03;6.67;;;9.30;1.00;;;;;;5010992;28;20168;-65
2022/09/23 04:07:14;;;;;;;9.67;7.00;;;9.30;1.00;;;;;;5011216;28;20180;-66
2022/09/23 04:09:40;;;;;;;6.70;6.00;;;9.30;1.00;;;;;;5010819;28;20196;-65
2022/09/23 04:12:07;;;;;;;7.40;6.50;;;9.20;1.00;;;;;;5010809;28;20415;-65
2022/09/23 04:14:32;;;;;;;7.93;6.90;;;9.20;1.00;;;;;;5010964;28;20446;-64
2022/09/23 04:16:58;;;;;;;15.20;6.27;;;9.20;1.00;;;;;;5010940;28;20482;-66
2022/09/23 04:19:24;;;;;;;6.63;6.07;;;9.20;1.00;;;;;;5010596;28;20177;-66
2022/09/23 04:21:49;;;;;;;10.67;6.53;;;9.20;1.00;;;;;;5010575;28;20168;-66
2022/09/23 04:24:16;;;;;;;10.67;7.30;;;9.20;1.00;;;;;;5010883;28;20629;-66
2022/09/23 04:26:42;;;;;;;9.80;6.47;;;9.20;1.00;;;;;;5007513;28;20262;-66
2022/09/23 04:29:09;;;;;;;10.03;7.63;;;9.30;1.00;;;;;;5008651;28;20517;-66
2022/09/23 04:31:35;;;;;;;10.03;7.77;;;9.20;1.00;;;;;;5009757;28;20434;-66
2022/09/23 04:34:01;;;;;;;14.73;6.90;;;9.30;1.00;;;;;;5010780;28;20419;-66
2022/09/23 04:36:29;;;;;;;10.07;7.70;;;9.20;1.00;;;;;;5010819;28;20418;-66
2022/09/23 04:38:55;;;;;;;17.43;7.00;;;9.20;1.00;;;;;;5010782;28;20169;-66
2022/09/23 04:41:21;;;;;;;7.83;6.37;;;9.00;1.00;;;;;;5009700;28;20451;-66
2022/09/23 04:43:47;;;;;;;20.47;8.90;;;9.00;1.00;;;;;;5010880;28;20769;-66
2022/09/23 04:46:14;;;;;;;14.90;8.13;;;9.00;1.00;;;;;;5010408;28;20478;-66
2022/09/23 04:48:40;;;;;;;15.80;7.53;;;9.00;1.00;;;;;;5008461;28;20184;-66
2022/09/23 04:51:08;;;;;;;21.00;8.53;;;9.10;1.00;;;;;;5008238;28;20435;-66
2022/09/23 04:53:38;;;;;;;16.43;7.57;;;9.00;1.00;;;;;;5008349;28;20415;-66
2022/09/23 04:56:10;;;;;;;10.90;7.33;;;9.00;1.00;;;;;;5007137;28;20415;-66
2022/09/23 04:58:36;;;;;;;28.63;8.80;;;9.10;1.00;;;;;;5008418;28;20486;-65
2022/09/23 05:01:33;;;;;;;20.53;8.80;;;8.90;1.00;;;;;;5007847;28;20462;-65
2022/09/23 05:04:01;;;;;;;22.47;8.87;;;8.90;1.00;;;;;;4987577;28;20535;-65
2022/09/23 05:06:28;;;;;;;19.30;6.53;;;8.90;1.00;;;;;;5008560;28;20438;-65
2022/09/23 05:08:55;;;;;;;15.20;6.53;;;8.90;1.00;;;;;;5008917;28;20439;-65
2022/09/23 05:11:22;;;;;;;20.50;7.43;;;8.80;1.00;;;;;;5007992;28;20476;-65
2022/09/23 05:13:51;;;;;;;16.00;8.53;;;8.90;1.00;;;;;;5008441;28;20529;-64
2022/09/23 05:16:18;;;;;;;10.17;8.97;;;8.80;1.00;;;;;;5010246;28;20443;-65
2022/09/23 05:18:47;;;;;;;12.70;9.27;;;8.80;1.00;;;;;;5008688;28;20595;-67
2022/09/23 05:21:14;;;;;;;28.90;8.40;;;9.10;1.00;;;;;;5009937;28;20562;-66
2022/09/23 05:23:41;;;;;;;31.63;7.70;;;9.70;1.00;;;;;;4997198;28;20780;-66
2022/09/23 05:26:10;;;;;;;8.00;7.20;;;10.30;99.90;;;;;;5009605;28;20431;-64
2022/09/23 05:28:38;;;;;;;31.97;9.67;;;11.10;99.90;;;;;;5009389;28;20963;-67
2022/09/23 05:31:11;;;;;;;65.27;11.50;;;11.70;99.90;;;;;;5010306;28;20569;-65
2022/09/23 05:33:36;;;;;;;36.57;8.80;;;12.30;99.90;;;;;;5011689;28;20414;-66
2022/09/23 05:36:03;;;;;;;16.73;7.93;;;13.00;99.90;;;;;;5011387;28;20404;-66
2022/09/23 05:38:30;;;;;;;41.33;11.00;;;13.70;99.90;;;;;;5011033;28;20269;-66
2022/09/23 05:41:02;;;;;;;41.23;10.03;;;14.20;99.90;;;;;;5010712;28;20483;-65
2022/09/23 05:43:28;;;;;;;32.70;9.40;;;15.00;99.90;;;;;;5025838;28;20399;-65
2022/09/23 05:46:05;;;;;;;18.20;8.40;;;15.60;99.90;;;;;;5024935;28;20426;-66
2022/09/23 05:48:32;;;;;;;15.77;7.43;;;15.90;99.90;;;;;;5014589;28;20454;-66
2022/09/23 05:50:58;;;;;;;20.13;9.83;;;15.30;99.90;;;;;;5012863;28;20838;-66
2022/09/23 05:53:25;;;;;;;13.43;8.70;;;15.00;99.90;;;;;;5010653;28;20422;-66
2022/09/23 05:55:53;;;;;;;13.50;7.77;;;14.70;99.90;;;;;;5010728;28;20427;-66
2022/09/23 05:58:19;;;;;;;16.90;9.10;;;14.20;99.90;;;;;;5010365;28;20935;-66
2022/09/23 06:00:45;;;;;;;17.10;8.57;;;14.70;99.90;;;;;;5010090;28;20469;-66
2022/09/23 06:03:16;;;;;;;14.17;9.00;;;15.10;99.90;;;;;;5010669;28;20416;-65
2022/09/23 06:05:42;;;;;;;71.40;13.57;;;15.40;99.90;;;;;;5000848;28;20518;-66
2022/09/23 06:08:08;;;;;;;28.40;10.27;;;15.50;99.90;;;;;;5010570;28;20447;-65
2022/09/23 06:10:38;;;;;;;25.50;10.17;;;15.60;99.90;;;;;;5010064;28;20430;-65
2022/09/23 06:13:04;;;;;;;15.40;8.50;;;16.00;99.90;;;;;;5010330;28;20407;-64
2022/09/23 06:15:30;;;;;;;17.67;9.13;;;17.00;99.90;;;;;;5010444;28;20423;-65
2022/09/23 06:17:55;;;;;;;17.37;9.80;;;17.30;99.90;;;;;;5010878;28;20575;-66
2022/09/23 06:20:21;;;;;;;37.20;9.77;;;17.30;99.90;;;;;;5009923;28;20208;-65
2022/09/23 06:22:47;;;;;;;14.20;9.57;;;18.00;99.90;;;;;;5010127;28;20314;-65
2022/09/23 06:25:13;;;;;;;9.60;8.33;;;18.40;99.90;;;;;;5010295;28;20627;-65
2022/09/23 06:27:38;;;;;;;10.23;8.20;;;18.70;99.90;;;;;;5010289;28;20980;-66
2022/09/23 06:30:05;;;;;;;8.80;7.90;;;19.00;99.90;;;;;;5009819;28;20291;-66
2022/09/23 06:32:32;;;;;;;14.40;8.80;;;19.80;99.90;;;;;;5010524;28;20186;-65
2022/09/23 06:34:58;;;;;;;15.67;8.50;;;20.00;99.90;;;;;;5011932;28;20415;-65
2022/09/23 06:37:24;;;;;;;9.50;8.50;;;19.40;99.90;;;;;;5012279;28;20403;-65
2022/09/23 06:39:49;;;;;;;21.43;9.60;;;19.50;99.90;;;;;;5012241;28;20208;-66
2022/09/23 06:42:15;;;;;;;33.90;12.93;;;20.10;99.90;;;;;;5012283;28;20414;-66
2022/09/23 06:44:42;;;;;;;45.70;13.87;;;20.50;99.90;;;;;;5011826;28;20223;-65
2022/09/23 06:47:08;;;;;;;95.33;15.73;;;20.90;99.90;;;;;;5012327;28;20469;-66
2022/09/23 06:49:34;;;;;;;217.53;25.53;;;21.00;99.90;;;;;;5011977;28;20439;-66
2022/09/23 06:52:00;;;;;;;34.90;10.53;;;20.70;99.90;;;;;;5012059;28;20418;-66
2022/09/23 06:54:27;;;;;;;25.40;9.67;;;20.00;99.90;;;;;;5009945;28;20427;-65
2022/09/23 06:56:54;;;;;;;20.43;9.33;;;19.40;99.90;;;;;;5007910;28;20181;-65
2022/09/23 06:59:19;;;;;;;19.33;9.97;;;19.10;99.90;;;;;;5005091;28;20463;-65
2022/09/23 07:01:46;;;;;;;50.33;11.30;;;18.90;99.90;;;;;;5008324;28;20972;-65
2022/09/23 07:04:13;;;;;;;50.00;10.87;;;18.70;99.90;;;;;;5011266;28;20180;-66
2022/09/23 07:06:39;;;;;;;50.17;12.17;;;18.50;99.90;;;;;;5011721;28;20430;-67
2022/09/23 07:09:06;;;;;;;46.17;12.33;;;18.40;99.90;;;;;;5010738;28;20443;-64
2022/09/23 07:11:32;;;;;;;45.87;11.00;;;18.20;99.90;;;;;;5010152;28;20744;-66
2022/09/23 07:13:58;;;;;;;27.23;11.33;;;18.30;99.90;;;;;;5011661;28;20415;-66
2022/09/23 07:16:24;;;;;;;16.50;10.80;;;18.20;99.90;;;;;;5013086;28;20775;-64
2022/09/23 07:18:51;;;;;;;13.17;9.60;;;17.80;99.90;;;;;;5013008;28;20271;-65
2022/09/23 07:21:18;;;;;;;14.93;13.43;;;17.70;99.90;;;;;;5012607;28;20331;-64
2022/09/23 07:23:45;;;;;;;25.93;16.53;;;17.20;99.90;;;;;;5012923;28;20419;-66
2022/09/23 07:26:12;;;;;;;18.20;16.50;;;17.20;99.90;;;;;;5011902;28;20723;-65
2022/09/23 07:28:38;;;;;;;19.17;17.23;;;17.60;99.90;;;;;;5010547;28;20415;-66
2022/09/23 07:31:09;;;;;;;20.03;16.60;;;17.90;99.90;;;;;;5010708;28;20458;-65
2022/09/23 07:33:36;;;;;;;18.60;16.90;;;17.90;99.90;;;;;;5008988;28;20458;-65
2022/09/23 07:36:11;;;;;;;192.03;35.10;;;18.00;99.90;;;;;;5008934;28;20424;-66
2022/09/23 07:38:37;;;;;;;43.27;21.67;;;18.40;99.90;;;;;;5010670;28;20435;-67
2022/09/23 07:41:09;;;;;;;94.47;24.70;;;18.60;99.90;;;;;;5010036;28;20498;-65
2022/09/23 07:43:36;;;;;;;54.83;20.87;;;18.90;99.90;;;;;;5009973;28;20935;-66
2022/09/23 07:46:09;;;;;;;56.00;19.27;;;19.20;99.90;;;;;;5010255;28;20491;-66
2022/09/23 07:48:36;;;;;;;30.17;17.83;;;19.40;99.90;;;;;;5009850;28;20431;-67
2022/09/23 07:51:11;;;;;;;19.17;15.47;;;19.60;99.90;;;;;;5010156;28;20546;-66
2022/09/23 07:53:37;;;;;;;22.93;15.57;;;19.60;99.90;;;;;;5009940;28;20884;-66
2022/09/23 07:56:05;;;;;;;19.90;15.77;;;19.50;99.90;;;;;;5010208;28;20481;-64
2022/09/23 07:58:32;;;;;;;16.80;14.57;;;19.10;99.90;;;;;;5009502;28;20177;-66
2022/09/23 08:01:09;;;;;;;17.53;15.10;;;18.30;99.90;;;;;;5008923;28;20524;-68
2022/09/23 08:03:36;;;;;;;16.50;14.60;;;18.30;99.90;;;;;;5010174;28;20437;-69
2022/09/23 08:06:11;;;;;;;17.87;15.93;;;18.50;99.90;;;;;;5010305;28;20427;-66
2022/09/23 08:08:42;;;;;;;19.10;15.23;;;18.00;99.90;;;;;;5009983;28;20422;-68
2022/09/23 08:11:09;;;;;;;40.13;16.20;;;18.10;99.90;;;;;;5008988;28;20780;-68
2022/09/23 08:13:35;;;;;;;32.00;14.50;;;18.70;99.90;;;;;;5009567;28;20540;-67
2022/09/23 08:16:01;;;;;;;60.77;16.97;;;18.80;99.90;;;;;;5025094;28;20427;-68
2022/09/23 08:18:27;;;;;;;22.97;13.50;;;19.00;99.90;;;;;;5009735;28;20176;-68
2022/09/23 08:20:53;;;;;;;19.30;11.90;;;19.00;99.90;;;;;;5008811;28;20203;-66
2022/09/23 08:23:19;;;;;;;70.03;15.00;;;18.80;99.90;;;;;;5009390;28;20184;-66
2022/09/23 08:25:46;;;;;;;15.77;12.67;;;18.50;99.90;;;;;;5010877;28;20165;-67
2022/09/23 08:28:15;;;;;;;12.27;11.07;;;18.80;99.90;;;;;;5008965;28;21057;-67
2022/09/23 08:30:44;;;;;;;13.53;12.10;;;18.70;99.90;;;;;;4989426;28;20431;-68
2022/09/23 08:33:11;;;;;;;12.87;11.67;;;18.70;99.90;;;;;;4990465;28;20858;-66
2022/09/23 08:35:36;;;;;;;19.00;11.87;;;18.60;99.90;;;;;;4989909;28;20829;-66
2022/09/23 08:38:02;;;;;;;14.30;12.00;;;18.60;99.90;;;;;;5002444;28;20498;-67
2022/09/23 08:40:28;;;;;;;18.10;12.03;;;18.70;99.90;;;;;;5012271;28;20258;-67
2022/09/23 08:42:54;;;;;;;14.27;11.67;;;18.90;99.90;;;;;;5012867;28;20173;-67
2022/09/23 08:45:24;;;;;;;13.17;11.47;;;19.10;99.90;;;;;;5013487;28;20171;-67
2022/09/23 08:48:12;;;;;;;13.77;11.90;;;19.20;99.90;;;;;;5013330;28;20522;-67
2022/09/23 08:51:04;;;;;;;22.07;12.77;;;19.10;99.90;;;;;;5012628;28;20423;-67
2022/09/23 08:53:37;;;;;;;46.40;15.70;;;19.10;99.90;;;;;;5013528;28;20456;-67
2022/09/23 08:56:16;;;;;;;11.70;10.60;;;19.80;99.90;;;;;;5013614;28;20430;-66
2022/09/23 08:59:27;;;;;;;35.03;14.57;;;18.70;99.90;;;;;;5013777;28;20842;-67
2022/09/23 09:01:59;;;;;;;41.47;14.03;;;18.50;99.90;;;;;;5009532;28;20559;-67
2022/09/23 09:04:33;;;;;;;17.60;9.97;;;19.20;99.90;;;;;;5012955;28;20522;-67
2022/09/23 09:07:05;;;;;;;24.00;9.80;;;19.50;99.90;;;;;;5012913;28;20418;-66
2022/09/23 09:09:49;;;;;;;26.67;8.97;;;19.90;99.90;;;;;;5012208;28;20417;-66
2022/09/23 09:12:23;;;;;;;14.87;9.30;;;20.30;99.90;;;;;;5011421;28;20411;-66
2022/09/23 09:14:59;;;;;;;25.13;9.73;;;20.00;99.90;;;;;;5013272;28;20772;-65
2022/09/23 09:17:37;;;;;;;19.93;8.57;;;20.00;99.90;;;;;;5013060;28;20415;-66
2022/09/23 09:20:28;;;;;;;40.87;10.60;;;20.00;99.90;;;;;;5012230;28;20550;-67
2022/09/23 09:23:00;;;;;;;10.80;8.23;;;19.80;99.90;;;;;;5012603;28;20432;-67
2022/09/23 09:25:32;;;;;;;30.70;9.30;;;20.10;99.90;;;;;;5012631;28;20407;-68
2022/09/23 09:27:58;;;;;;;16.43;7.10;;;20.30;99.90;;;;;;5012239;28;20735;-67
2022/09/23 09:30:24;;;;;;;24.83;9.10;;;20.50;99.90;;;;;;5011834;28;20526;-66
2022/09/23 09:32:50;;;;;;;21.80;8.83;;;20.50;99.90;;;;;;5012221;28;20494;-67
2022/09/23 09:35:35;;;;;;;8.83;7.20;;;20.00;99.90;;;;;;5012711;28;20203;-67
2022/09/23 09:38:02;;;;;;;14.00;7.90;;;19.80;99.90;;;;;;5012237;28;20259;-67
2022/09/23 09:40:28;;;;;;;9.93;7.83;;;20.00;99.90;;;;;;5012735;28;20450;-68
2022/09/23 09:42:54;;;;;;;9.67;8.80;;;20.00;99.90;;;;;;5012089;28;20439;-67
2022/09/23 09:45:25;;;;;;;13.03;9.40;;;19.60;99.90;;;;;;5012268;28;20435;-67
2022/09/23 09:48:23;;;;;;;40.30;12.40;;;18.90;99.90;;;;;;5012392;28;20610;-67
2022/09/23 09:50:51;;;;;;;23.77;9.90;;;19.20;99.90;;;;;;5007735;28;20924;-67
2022/09/23 09:53:24;;;;;;;21.93;9.70;;;19.50;99.90;;;;;;5012343;28;20473;-67
2022/09/23 09:56:05;;;;;;;11.53;9.10;;;19.60;99.90;;;;;;5012707;28;20403;-67
2022/09/23 09:58:49;;;;;;;20.67;10.37;;;19.50;99.90;;;;;;5012255;28;20416;-67
2022/09/23 10:01:26;;;;;;;13.80;9.90;;;19.50;99.90;;;;;;5011929;28;20481;-68
2022/09/23 10:03:55;;;;;;;12.80;9.17;;;18.90;99.90;;;;;;5012290;28;20567;-67
2022/09/23 10:06:24;;;;;;;12.20;9.33;;;18.90;99.90;;;;;;5026979;28;20403;-67
2022/09/23 10:09:09;;;;;;;20.50;9.93;;;19.00;99.90;;;;;;5011904;28;20412;-67
2022/09/23 10:11:36;;;;;;;66.77;15.13;;;19.10;99.90;;;;;;5011307;28;20427;-66
2022/09/23 10:14:12;;;;;;;27.40;12.17;;;19.20;99.90;;;;;;5011739;28;20980;-68
2022/09/23 10:16:40;;;;;;;49.53;14.47;;;19.20;99.90;;;;;;5011712;28;20416;-66
2022/09/23 10:19:27;;;;;;;82.30;17.97;;;19.30;99.90;;;;;;5011754;28;20410;-67
2022/09/23 10:21:58;;;;;;;44.00;13.80;;;19.40;99.90;;;;;;5011253;28;20443;-66
2022/09/23 10:24:28;;;;;;;18.00;10.23;;;19.50;99.90;;;;;;5011900;28;20407;-67
2022/09/23 10:27:06;;;;;;;23.33;9.80;;;19.50;99.90;;;;;;5010790;28;20882;-67
2022/09/23 10:29:47;;;;;;;19.63;9.90;;;19.40;99.90;;;;;;5011113;28;20418;-67
2022/09/23 10:32:22;;;;;;;27.70;10.67;;;19.40;99.90;;;;;;5010218;28;20402;-67
2022/09/23 10:34:53;;;;;;;21.23;10.90;;;19.50;99.90;;;;;;5011449;28;20433;-66
2022/09/23 10:37:42;;;;;;;72.33;17.00;;;19.50;99.90;;;;;;5010722;28;20557;-67
2022/09/23 10:46:50;;;;;;;13.93;10.30;;;19.70;99.90;;;;;;5010285;28;20391;-66
2022/09/23 10:49:42;;;;;;;17.60;11.20;;;19.70;99.90;;;;;;5010756;28;20903;-68
2022/09/23 10:52:34;;;;;;;24.90;11.93;;;19.70;99.90;;;;;;5009818;28;20412;-69
2022/09/23 10:55:13;;;;;;;30.43;12.97;;;19.80;99.90;;;;;;5010821;28;20419;-68
2022/09/23 10:57:42;;;;;;;55.27;15.27;;;19.70;99.90;;;;;;5009817;28;20410;-68
2022/09/23 11:00:08;;;;;;;44.00;13.53;;;19.60;99.90;;;;;;5010502;28;20455;-68
2022/09/23 11:02:49;;;;;;;34.63;13.40;;;19.50;99.90;;;;;;5009293;28;21017;-68
2022/09/23 11:05:25;;;;;;;23.73;12.10;;;19.50;99.90;;;;;;5004999;28;20432;-67
2022/09/23 11:08:37;;;;;;;19.10;11.03;;;19.60;99.90;;;;;;5006851;28;20403;-67
2022/09/23 11:11:38;;;;;;;11.47;10.33;;;19.50;99.90;;;;;;5009200;28;20736;-67
2022/09/23 11:14:39;;;;;;;11.10;10.00;;;19.50;99.90;;;;;;5025324;28;20426;-67
2022/09/23 11:17:50;;;;;;;21.57;10.93;;;19.50;99.90;;;;;;5009201;28;20415;-68
2022/09/23 11:20:27;;;;;;;14.40;12.03;;;19.70;99.90;;;;;;5010059;28;20466;-68
2022/09/23 11:23:19;;;;;;;34.47;13.47;;;19.50;99.90;;;;;;5009947;28;20800;-68
2022/09/23 11:26:02;;;;;;;24.33;12.33;;;19.60;99.90;;;;;;5010583;28;20774;-67
2022/09/23 11:28:37;;;;;;;22.10;12.53;;;19.80;99.90;;;;;;5009862;28;20407;-67
2022/09/23 11:31:20;;;;;;;20.70;11.53;;;20.00;99.90;;;;;;5009583;28;20443;-67
2022/09/23 11:34:10;;;;;;;16.53;11.87;;;20.10;99.90;;;;;;5009896;28;20465;-67
2022/09/23 11:36:42;;;;;;;29.60;13.00;;;20.20;99.90;;;;;;5010447;28;20403;-68
2022/09/23 11:39:23;;;;;;;53.73;15.00;;;20.10;99.90;;;;;;5010323;28;20408;-67
2022/09/23 11:41:53;;;;;;;40.87;14.03;;;20.10;99.90;;;;;;5009634;28;20455;-67
2022/09/23 11:44:25;;;;;;;16.30;12.37;;;20.20;99.90;;;;;;5013087;28;20964;-67
2022/09/23 11:47:03;;;;;;;34.80;13.50;;;20.00;99.90;;;;;;5014639;28;21007;-68
2022/09/23 11:49:38;;;;;;;17.73;12.80;;;20.10;99.90;;;;;;5012500;28;20952;-68
2022/09/23 11:52:32;;;;;;;26.40;12.07;;;19.90;99.90;;;;;;5009860;28;20419;-69
2022/09/23 11:55:14;;;;;;;18.47;12.03;;;19.70;99.90;;;;;;5010094;28;20453;-68
2022/09/23 11:57:44;;;;;;;17.07;11.87;;;19.80;99.90;;;;;;5009049;28;20959;-69
2022/09/23 12:00:18;;;;;;;22.00;11.57;;;20.00;99.90;;;;;;5009749;28;20474;-69
2022/09/23 12:03:12;;;;;;;19.93;11.90;;;20.10;99.90;;;;;;5009683;28;20434;-69
2022/09/23 12:05:44;;;;;;;18.13;12.00;;;19.90;99.90;;;;;;5009496;28;20403;-69
2022/09/23 12:08:28;;;;;;;41.40;14.20;;;20.00;99.90;;;;;;5009852;28;20461;-69
2022/09/23 12:10:54;;;;;;;58.20;15.93;;;20.00;99.90;;;;;;5007405;28;20893;-69
2022/09/23 12:13:43;;;;;;;29.93;14.33;;;19.90;99.90;;;;;;5012207;28;20498;-69
2022/09/23 12:16:24;;;;;;;26.50;13.30;;;19.80;99.90;;;;;;5013863;28;20921;-69
2022/09/23 12:19:20;;;;;;;15.67;12.17;;;19.70;99.90;;;;;;5013858;28;20414;-68
2022/09/23 12:22:10;;;;;;;13.17;11.80;;;19.80;99.90;;;;;;5012795;28;20459;-69
2022/09/23 12:25:09;;;;;;;12.70;11.20;;;20.00;99.90;;;;;;5013976;28;20401;-68
2022/09/23 12:27:48;;;;;;;12.40;11.20;;;20.00;99.90;;;;;;5013244;28;20422;-69
2022/09/23 12:30:29;;;;;;;42.97;14.60;;;20.10;99.90;;;;;;5013340;28;20431;-69
2022/09/23 12:33:08;;;;;;;19.70;11.40;;;20.20;99.90;;;;;;5014064;28;20399;-68
2022/09/23 12:35:41;;;;;;;12.67;11.37;;;19.80;99.90;;;;;;5013602;28;20464;-69
2022/09/23 12:38:39;;;;;;;14.90;11.20;;;19.90;99.90;;;;;;5013590;28;20464;-69
2022/09/23 12:41:26;;;;;;;18.50;11.50;;;20.00;99.90;;;;;;5012701;28;20491;-69
2022/09/23 12:44:14;;;;;;;24.63;11.40;;;19.90;99.90;;;;;;5013778;28;20922;-68
2022/09/23 12:46:44;;;;;;;14.83;11.00;;;20.00;99.90;;;;;;5013753;28;20881;-69
2022/09/23 12:49:24;;;;;;;11.60;9.93;;;20.10;99.90;;;;;;5013494;28;20431;-69
2022/09/23 12:52:11;;;;;;;11.13;10.03;;;20.00;99.90;;;;;;5012552;28;20790;-69
2022/09/23 12:54:42;;;;;;;22.40;11.93;;;20.20;99.90;;;;;;5013206;28;20437;-69
2022/09/23 12:57:12;;;;;;;28.50;10.70;;;20.10;99.90;;;;;;5012906;28;20395;-68
2022/09/23 12:59:50;;;;;;;13.97;9.30;;;20.10;99.90;;;;;;5013150;28;20422;-67
2022/09/23 13:02:41;;;;;;;14.30;9.10;;;20.00;99.90;;;;;;5012369;28;20414;-70
2022/09/23 13:07:57;;;;;;;10.57;9.63;;;19.90;99.90;;;;;;5013362;28;20572;-68
2022/09/23 13:10:32;;;;;;;14.37;9.70;;;19.80;99.90;;;;;;5013152;28;20893;-67
2022/09/23 13:13:01;;;;;;;14.37;9.47;;;19.70;99.90;;;;;;5013260;28;20468;-68
2022/09/23 13:15:32;;;;;;;14.10;10.73;;;19.60;99.90;;;;;;5013642;28;20484;-71
2022/09/23 13:18:20;;;;;;;47.90;13.30;;;19.60;99.90;;;;;;5012863;28;20411;-69
2022/09/23 13:20:51;;;;;;;15.27;10.57;;;19.80;99.90;;;;;;5012009;28;20465;-69
2022/09/23 13:23:24;;;;;;;13.17;11.00;;;19.80;99.90;;;;;;5013087;28;20403;-69